Orion, Michigan
Current Conditions -  °F | °C
As of 5:53 PM on Wednesday 22 Oct 2014 (Local Time) from KPTK Reporting Station
Scattered Clouds Scattered Clouds  
Wind Chill: 51°   Ceiling: Unl
Heat Index: 51°   Visibility: 10mi
Dew Point: 38°   Wind: 6mph
Humidity: 61%   Direction: 360°N
Pressure: 30.28"   Gusts: NA
Location:  42.7458°N, 83.2617°W
Report Text: KPTK 222153Z 36005KT 10SM SCT029 11/03 A3028 RMK AO2 SLP259 T01060033
Loading
Personal Weather Stations






























Interactive Weather Map
Tropical Storm Tracking
New forecast layout! Learn more

10-Day Weather Forecast

Advertisements
Track Severe Weather on mobile